createdAt,value
2022-11-16T00:00:11.781Z,99893.89
2022-11-16T00:02:42.254Z,99889.18
2022-11-16T00:05:12.805Z,99889.19
2022-11-16T00:07:43.267Z,99886.69
2022-11-16T00:10:13.748Z,99885.39
2022-11-16T00:12:43.929Z,99884.06
2022-11-16T00:15:14.411Z,99883.72
2022-11-16T00:17:44.934Z,99879.68
2022-11-16T00:20:15.077Z,99879.40
2022-11-16T00:22:45.661Z,99875.05
2022-11-16T00:25:16.156Z,99868.99
2022-11-16T00:27:46.390Z,99863.78
2022-11-16T00:30:16.877Z,99864.62
2022-11-16T00:32:47.053Z,99861.31
2022-11-16T00:35:17.540Z,99856.01
2022-11-16T00:37:48.055Z,99852.93
2022-11-16T00:40:18.599Z,99856.01
2022-11-16T00:42:49.067Z,99850.32
2022-11-16T00:45:19.564Z,99847.26
2022-11-16T00:47:50.081Z,99846.23
2022-11-16T00:50:20.569Z,99846.33
2022-11-16T00:52:51.083Z,99843.69
2022-11-16T00:55:21.569Z,99842.54
2022-11-16T00:57:52.071Z,99836.05
2022-11-16T01:00:22.570Z,99834.68
2022-11-16T01:02:53.093Z,99831.05
2022-11-16T01:05:23.576Z,99830.53
2022-11-16T01:07:54.223Z,99828.88
2022-11-16T01:10:24.569Z,99826.05
2022-11-16T01:12:55.085Z,99826.90
2022-11-16T01:15:25.564Z,99822.03
2022-11-16T01:17:56.076Z,99820.49
2022-11-16T01:20:26.548Z,99819.37
2022-11-16T01:22:57.053Z,99819.79
2022-11-16T01:25:27.548Z,99818.41
2022-11-16T01:27:58.349Z,99811.58
2022-11-16T01:30:28.824Z,99808.43
2022-11-16T01:32:59.341Z,99806.66
2022-11-16T01:35:29.849Z,99807.86
2022-11-16T01:38:00.446Z,99806.55
2022-11-16T01:40:30.885Z,99800.58
2022-11-16T01:43:01.403Z,99795.82
2022-11-16T01:45:31.926Z,99795.57
2022-11-16T01:48:02.231Z,99790.63
2022-11-16T01:50:32.669Z,99790.33
2022-11-16T01:53:03.225Z,99785.66
2022-11-16T01:55:33.676Z,99781.67
2022-11-16T01:58:04.293Z,99777.44
2022-11-16T02:00:34.709Z,99772.11
2022-11-16T02:03:05.235Z,99768.79
2022-11-16T02:05:35.746Z,99763.86
2022-11-16T02:08:06.268Z,99759.33
2022-11-16T02:10:36.782Z,99752.25
2022-11-16T02:13:07.312Z,99750.26
2022-11-16T02:15:37.828Z,99744.53
2022-11-16T02:18:08.372Z,99746.02
2022-11-16T02:20:38.885Z,99741.25
2022-11-16T02:23:09.431Z,99740.30
2022-11-16T02:25:39.934Z,99739.83
2022-11-16T02:28:10.214Z,99738.89
2022-11-16T02:30:40.629Z,99736.65
2022-11-16T02:33:11.171Z,99735.82
2022-11-16T02:35:41.677Z,99732.19
2022-11-16T02:38:12.232Z,99727.90
2022-11-16T02:40:42.737Z,99727.11
2022-11-16T02:43:13.292Z,99722.80
2022-11-16T02:45:43.812Z,99723.62
2022-11-16T02:48:14.348Z,99719.12
2022-11-16T02:50:44.862Z,99716.85
2022-11-16T02:53:15.407Z,99716.53
2022-11-16T02:55:45.938Z,99714.23
2022-11-16T02:58:16.574Z,99714.66
2022-11-16T03:00:47.082Z,99715.47
2022-11-16T03:03:17.557Z,99713.78
2022-11-16T03:05:47.824Z,99711.88
2022-11-16T03:08:18.413Z,99713.93
2022-11-16T03:10:49.134Z,99713.67
2022-11-16T03:13:19.681Z,99713.70
2022-11-16T03:15:50.189Z,99714.06
2022-11-16T03:18:20.376Z,99713.50
2022-11-16T03:20:50.898Z,99710.59
2022-11-16T03:23:21.428Z,99707.01
2022-11-16T03:25:51.943Z,99706.44
2022-11-16T03:28:22.478Z,99706.22
2022-11-16T03:30:53.005Z,99702.33
2022-11-16T03:33:23.555Z,99698.39
2022-11-16T03:35:54.081Z,99697.39
2022-11-16T03:38:24.629Z,99700.38
2022-11-16T03:40:55.162Z,99700.80
2022-11-16T03:43:25.791Z,99702.46
2022-11-16T03:45:56.221Z,99700.26
2022-11-16T03:48:26.763Z,99698.83
2022-11-16T03:50:57.274Z,99695.37
2022-11-16T03:53:27.816Z,99691.53
2022-11-16T03:55:58.345Z,99693.91
2022-11-16T03:58:28.874Z,99692.40
2022-11-16T04:00:59.512Z,99687.28
2022-11-16T04:03:29.918Z,99688.63
2022-11-16T04:06:00.446Z,99690.54
2022-11-16T04:08:31.283Z,99692.07
2022-11-16T04:11:01.227Z,99686.55
2022-11-16T04:13:31.843Z,99684.78
2022-11-16T04:16:02.404Z,99685.08
2022-11-16T04:18:33.125Z,99683.22
2022-11-16T04:21:03.349Z,99691.61
2022-11-16T04:23:33.880Z,99688.57
2022-11-16T04:26:04.141Z,99688.38
2022-11-16T04:28:34.546Z,99688.40
2022-11-16T04:31:04.851Z,99690.45
2022-11-16T04:33:35.361Z,99685.80
2022-11-16T04:36:05.888Z,99684.22
2022-11-16T04:38:36.606Z,99685.62
2022-11-16T04:41:06.646Z,99685.17
2022-11-16T04:43:37.156Z,99681.52
2022-11-16T04:46:07.697Z,99673.09
2022-11-16T04:48:38.204Z,99665.81
2022-11-16T04:51:08.783Z,99658.82
2022-11-16T04:53:39.557Z,99668.57
2022-11-16T04:56:09.761Z,99672.12
2022-11-16T04:58:40.010Z,99672.85
2022-11-16T05:01:10.889Z,99668.71
2022-11-16T05:03:41.381Z,99673.02
2022-11-16T05:06:11.928Z,99674.45
2022-11-16T05:08:42.103Z,99679.78
2022-11-16T05:11:12.477Z,99677.21
2022-11-16T05:13:42.697Z,99677.31
2022-11-16T05:16:13.315Z,99677.69
2022-11-16T05:18:43.342Z,99674.47
2022-11-16T05:21:13.892Z,99668.60
2022-11-16T05:23:44.426Z,99668.40
2022-11-16T05:26:14.733Z,99666.55
2022-11-16T05:28:44.959Z,99667.93
2022-11-16T05:31:15.592Z,99668.66
2022-11-16T05:33:45.700Z,99668.07
2022-11-16T05:36:16.640Z,99670.26
2022-11-16T05:38:47.152Z,99669.93
2022-11-16T05:41:17.353Z,99672.18
2022-11-16T05:43:47.614Z,99674.20
2022-11-16T05:46:18.271Z,99676.93
2022-11-16T05:48:48.951Z,99681.35
2022-11-16T05:51:19.198Z,99681.38
2022-11-16T05:53:49.716Z,99685.50
2022-11-16T05:56:20.209Z,99687.81
2022-11-16T05:58:50.711Z,99689.20
2022-11-16T06:01:21.253Z,99689.15
2022-11-16T06:03:51.490Z,99689.44
2022-11-16T06:06:22.162Z,99691.58
2022-11-16T06:08:52.978Z,99693.83
2022-11-16T06:11:23.951Z,99697.73
2022-11-16T06:13:54.594Z,99701.37
2022-11-16T06:16:25.139Z,99702.33
2022-11-16T06:18:55.652Z,99706.76
2022-11-16T06:21:25.918Z,99707.75
2022-11-16T06:23:56.388Z,99712.90
2022-11-16T06:26:26.646Z,99716.85
2022-11-16T06:28:57.456Z,99718.62
2022-11-16T06:31:28.313Z,99720.89
2022-11-16T06:33:58.742Z,99724.57
2022-11-16T06:36:29.286Z,99725.09
2022-11-16T06:39:00.110Z,99720.07
2022-11-16T06:41:30.427Z,99727.40
2022-11-16T06:44:01.095Z,99732.55
2022-11-16T06:49:01.904Z,99747.31
2022-11-16T06:51:32.149Z,99745.72
2022-11-16T06:54:02.823Z,99747.07
2022-11-16T06:56:33.549Z,99747.59
2022-11-16T06:59:03.678Z,99750.29
2022-11-16T07:01:34.272Z,99747.88
2022-11-16T07:04:04.742Z,99750.99
2022-11-16T07:06:35.425Z,99756.71
2022-11-16T07:09:05.536Z,99757.65
2022-11-16T07:11:35.730Z,99758.84
2022-11-16T07:14:06.623Z,99758.97
2022-11-16T07:16:36.804Z,99762.56
2022-11-16T07:19:07.322Z,99763.98
2022-11-16T07:21:37.817Z,99769.15
2022-11-16T07:24:08.541Z,99772.71
2022-11-16T07:26:39.058Z,99777.62
2022-11-16T07:29:09.811Z,99778.18
2022-11-16T07:31:40.220Z,99780.97
2022-11-16T07:34:10.837Z,99782.61
2022-11-16T07:36:40.981Z,99780.06
2022-11-16T07:39:11.582Z,99782.21
2022-11-16T07:41:41.935Z,99791.21
2022-11-16T07:44:12.461Z,99795.29
2022-11-16T07:46:47.924Z,99800.99
2022-11-16T07:49:13.339Z,99802.69
2022-11-16T07:51:43.871Z,99806.21
2022-11-16T07:54:14.357Z,99813.05
2022-11-16T07:56:45.091Z,99816.10
2022-11-16T07:59:15.615Z,99821.58
2022-11-16T08:01:46.238Z,99823.36
2022-11-16T08:04:16.609Z,99823.58
2022-11-16T08:06:46.864Z,99828.31
2022-11-16T08:09:17.404Z,99829.80
2022-11-16T08:11:47.654Z,99825.75
2022-11-16T08:14:17.732Z,99829.85
2022-11-16T08:16:48.544Z,99832.75
2022-11-16T08:19:18.762Z,99842.55
2022-11-16T08:21:49.355Z,99846.48
2022-11-16T08:24:19.786Z,99847.32
2022-11-16T08:26:50.292Z,99850.07
2022-11-16T08:29:20.831Z,99851.98
2022-11-16T08:31:51.595Z,99855.20
2022-11-16T08:34:22.214Z,99854.56
2022-11-16T08:36:52.853Z,99853.81
2022-11-16T08:39:23.119Z,99852.74
2022-11-16T08:41:53.308Z,99853.25
2022-11-16T08:44:23.531Z,99853.81
2022-11-16T08:46:54.075Z,99852.21
2022-11-16T08:49:24.573Z,99856.92
2022-11-16T08:51:55.108Z,99862.08
2022-11-16T08:54:25.357Z,99858.34
2022-11-16T08:56:56.175Z,99860.83
2022-11-16T08:59:26.573Z,99866.53
2022-11-16T09:01:57.189Z,99871.16
2022-11-16T09:04:29.602Z,99875.97
2022-11-16T09:06:58.003Z,99880.81
2022-11-16T09:09:28.595Z,99882.54
2022-11-16T09:11:58.824Z,99881.75
2022-11-16T09:14:29.032Z,99880.97
2022-11-16T09:16:59.211Z,99874.66
2022-11-16T09:19:29.430Z,99870.60
2022-11-16T09:21:59.912Z,99873.52
2022-11-16T09:24:30.138Z,99872.83
2022-11-16T09:27:00.660Z,99873.88
2022-11-16T09:29:31.111Z,99878.12
2022-11-16T09:32:01.666Z,99882.31
2022-11-16T09:34:32.145Z,99884.88
2022-11-16T09:37:02.575Z,99888.72
2022-11-16T09:39:32.941Z,99887.62
2022-11-16T09:42:03.299Z,99889.85
2022-11-16T09:44:33.766Z,99892.67
2022-11-16T09:47:03.996Z,99899.26
2022-11-16T09:49:34.472Z,99904.45
2022-11-16T09:52:04.966Z,99906.23
2022-11-16T09:54:35.465Z,99906.33
2022-11-16T09:57:12.008Z,99907.94
2022-11-16T09:59:36.132Z,99910.98
2022-11-16T10:02:06.469Z,99916.52
2022-11-16T10:04:36.457Z,99923.79
2022-11-16T10:07:06.730Z,99925.35
2022-11-16T10:09:37.209Z,99931.58
2022-11-16T10:12:07.597Z,99933.05
2022-11-16T10:14:37.812Z,99936.50
2022-11-16T10:17:08.327Z,99938.96
2022-11-16T10:19:38.803Z,99938.84
2022-11-16T10:22:09.464Z,99937.52
2022-11-16T10:24:39.799Z,99941.53
2022-11-16T10:27:09.962Z,99941.24
2022-11-16T10:29:40.535Z,99938.37
2022-11-16T10:32:10.952Z,99939.17
2022-11-16T10:34:41.704Z,99941.44
2022-11-16T10:37:11.916Z,99943.21
2022-11-16T10:39:42.452Z,99940.54
2022-11-16T10:42:12.890Z,99935.81
2022-11-16T10:44:43.366Z,99931.53
2022-11-16T10:47:13.515Z,99933.51
2022-11-16T10:49:43.986Z,99931.76
2022-11-16T10:52:14.485Z,99934.07
2022-11-16T10:54:44.977Z,99938.79
2022-11-16T10:57:15.485Z,99942.08
2022-11-16T10:59:45.976Z,99938.94
2022-11-16T11:02:16.823Z,99934.75
2022-11-16T11:04:46.974Z,99927.87
2022-11-16T11:07:17.555Z,99929.31
2022-11-16T11:09:47.988Z,99925.10
2022-11-16T11:12:18.218Z,99927.02
2022-11-16T11:14:48.705Z,99927.26
2022-11-16T11:17:19.226Z,99925.81
2022-11-16T11:19:49.718Z,99919.81
2022-11-16T11:22:19.947Z,99913.73
2022-11-16T11:24:50.435Z,99909.25
2022-11-16T11:27:20.938Z,99913.21
2022-11-16T11:29:51.066Z,99913.24
2022-11-16T11:32:24.496Z,99909.81
2022-11-16T11:34:52.041Z,99910.33
2022-11-16T11:37:22.539Z,99910.18
2022-11-16T11:39:53.008Z,99904.16
2022-11-16T11:42:23.493Z,99905.56
2022-11-16T11:44:53.970Z,99905.10
2022-11-16T11:49:55.005Z,99906.09
2022-11-16T11:52:25.433Z,99903.51
2022-11-16T11:54:55.870Z,99899.64
2022-11-16T11:57:26.327Z,99891.72
2022-11-16T11:59:56.796Z,99891.49
2022-11-16T12:02:27.154Z,99891.60
2022-11-16T12:04:57.604Z,99895.42
2022-11-16T12:07:28.099Z,99895.53
2022-11-16T12:09:58.516Z,99899.33
2022-11-16T12:12:28.959Z,99902.03
2022-11-16T12:14:59.396Z,99898.61
2022-11-16T12:17:29.868Z,99899.01
2022-11-16T12:20:00.326Z,99895.47
2022-11-16T12:22:30.804Z,99889.33
2022-11-16T12:25:01.266Z,99891.89
2022-11-16T12:27:31.724Z,99891.73
2022-11-16T12:30:02.175Z,99890.15
2022-11-16T12:32:32.654Z,99891.99
2022-11-16T12:35:03.168Z,99892.68
2022-11-16T12:37:33.599Z,99889.97
2022-11-16T12:40:04.038Z,99881.43
2022-11-16T12:42:34.263Z,99878.60
2022-11-16T12:45:04.784Z,99879.53
2022-11-16T12:47:35.335Z,99877.21
2022-11-16T12:50:05.744Z,99874.61
2022-11-16T12:52:36.295Z,99876.20
2022-11-16T12:55:26.652Z,99883.99
2022-11-16T12:57:37.367Z,99882.99
2022-11-16T13:00:07.790Z,99883.00
2022-11-16T13:02:38.314Z,99882.46
2022-11-16T13:05:08.758Z,99883.47
2022-11-16T13:07:39.258Z,99885.67
2022-11-16T13:10:09.682Z,99884.90
2022-11-16T13:12:40.229Z,99878.60
2022-11-16T13:15:10.621Z,99877.41
2022-11-16T13:17:41.117Z,99877.05
2022-11-16T13:20:14.622Z,99881.74
2022-11-16T13:22:42.052Z,99877.56
2022-11-16T13:25:12.517Z,99880.16
2022-11-16T13:27:43.017Z,99880.29
2022-11-16T13:30:13.473Z,99878.12
2022-11-16T13:32:43.972Z,99874.84
2022-11-16T13:35:14.413Z,99873.51
2022-11-16T13:37:44.937Z,99867.29
2022-11-16T13:40:15.390Z,99860.09
2022-11-16T13:42:45.879Z,99856.00
2022-11-16T13:45:16.335Z,99855.69
2022-11-16T13:47:46.828Z,99853.35
2022-11-16T13:50:17.268Z,99850.91
2022-11-16T13:53:36.301Z,99852.77
2022-11-16T13:55:18.204Z,99859.95
2022-11-16T13:57:48.736Z,99862.46
2022-11-16T14:00:19.137Z,99860.29
2022-11-16T14:02:49.618Z,99860.59
2022-11-16T14:05:20.073Z,99856.32
2022-11-16T14:07:50.541Z,99855.35
2022-11-16T14:10:21.036Z,99856.07
2022-11-16T14:12:51.828Z,99851.51
2022-11-16T14:15:21.987Z,99849.98
2022-11-16T14:17:52.484Z,99851.36
2022-11-16T14:20:22.947Z,99850.83
2022-11-16T14:22:53.444Z,99848.90
2022-11-16T14:25:23.917Z,99847.22
2022-11-16T14:27:54.404Z,99848.88
2022-11-16T14:30:24.871Z,99848.10
2022-11-16T14:32:55.392Z,99845.26
2022-11-16T14:35:25.841Z,99842.45
2022-11-16T14:37:56.341Z,99841.47
2022-11-16T14:40:26.815Z,99838.47
2022-11-16T14:45:27.774Z,99841.15
2022-11-16T14:47:58.314Z,99839.16
2022-11-16T14:50:28.773Z,99840.64
2022-11-16T14:52:59.298Z,99840.60
2022-11-16T14:55:29.463Z,99843.76
2022-11-16T14:57:59.951Z,99845.31
2022-11-16T15:00:30.437Z,99846.76
2022-11-16T15:03:02.791Z,99847.67
2022-11-16T15:05:31.174Z,99840.70
2022-11-16T15:08:01.702Z,99841.94
2022-11-16T15:10:32.221Z,99842.11
2022-11-16T15:13:02.772Z,99836.92
2022-11-16T15:15:33.315Z,99837.43
2022-11-16T15:18:03.930Z,99845.39
2022-11-16T15:20:34.127Z,99844.71
2022-11-16T15:23:04.679Z,99847.69
2022-11-16T15:25:35.213Z,99844.39
2022-11-16T15:28:05.394Z,99839.34
2022-11-16T15:30:35.930Z,99841.88
2022-11-16T15:33:06.433Z,99840.83
2022-11-16T15:35:36.878Z,99841.03
2022-11-16T15:38:07.372Z,99847.03
2022-11-16T15:40:37.848Z,99849.34
2022-11-16T15:43:08.332Z,99851.26
2022-11-16T15:45:38.965Z,99848.96
2022-11-16T15:48:09.328Z,99843.99
2022-11-16T15:50:39.801Z,99839.62
2022-11-16T15:53:10.291Z,99837.60
2022-11-16T15:55:40.898Z,99842.07
2022-11-16T15:58:11.391Z,99845.48
2022-11-16T16:00:41.797Z,99848.49
2022-11-16T16:03:12.299Z,99846.61
2022-11-16T16:05:42.777Z,99844.25
2022-11-16T16:08:13.279Z,99841.49
2022-11-16T16:10:43.792Z,99838.16
2022-11-16T16:13:14.300Z,99837.26
2022-11-16T16:15:44.494Z,99843.86
2022-11-16T16:18:14.998Z,99847.20
2022-11-16T16:20:45.491Z,99843.73
2022-11-16T16:23:15.713Z,99834.33
2022-11-16T16:25:50.353Z,99830.93
2022-11-16T16:28:16.394Z,99830.51
2022-11-16T16:30:46.881Z,99830.38
2022-11-16T16:33:17.468Z,99827.21
2022-11-16T16:35:47.973Z,99820.81
2022-11-16T16:38:18.424Z,99811.87
2022-11-16T16:40:48.950Z,99811.07
2022-11-16T16:43:19.187Z,99814.10
2022-11-16T16:45:49.706Z,99821.10
2022-11-16T16:48:20.268Z,99823.09
2022-11-16T16:50:50.771Z,99814.86
2022-11-16T16:53:21.046Z,99809.63
2022-11-16T16:55:51.217Z,99811.08
2022-11-16T16:58:21.760Z,99812.67
2022-11-16T17:00:55.649Z,99811.74
2022-11-16T17:03:22.868Z,99814.11
2022-11-16T17:05:53.394Z,99810.96
2022-11-16T17:08:24.078Z,99805.27
2022-11-16T17:10:54.775Z,99798.99
2022-11-16T17:13:25.301Z,99794.50
2022-11-16T17:15:55.842Z,99793.68
2022-11-16T17:18:26.417Z,99796.54
2022-11-16T17:20:56.957Z,99794.02
2022-11-16T17:23:27.511Z,99792.05
2022-11-16T17:25:58.079Z,99795.86
2022-11-16T17:28:28.708Z,99798.69
2022-11-16T17:30:59.210Z,99802.73
2022-11-16T17:33:29.488Z,99798.23
2022-11-16T17:35:59.779Z,99799.01
2022-11-16T17:38:29.834Z,99800.17
2022-11-16T17:41:00.018Z,99795.54
2022-11-16T17:43:30.032Z,99790.35
2022-11-16T17:46:00.855Z,99786.15
2022-11-16T17:48:31.419Z,99782.75
2022-11-16T17:51:01.742Z,99774.76
2022-11-16T17:53:32.926Z,99776.31
2022-11-16T17:56:02.575Z,99779.94
2022-11-16T17:58:33.016Z,99775.23
2022-11-16T18:01:03.226Z,99772.98
2022-11-16T18:03:34.010Z,99776.61
2022-11-16T18:06:04.291Z,99780.80
2022-11-16T18:08:34.374Z,99781.42
2022-11-16T18:11:05.211Z,99779.12
2022-11-16T18:13:36.185Z,99775.64
2022-11-16T18:16:05.707Z,99777.24
2022-11-16T18:18:35.976Z,99772.30
2022-11-16T18:21:06.052Z,99773.18
2022-11-16T18:23:36.939Z,99767.03
2022-11-16T18:26:06.956Z,99764.48
2022-11-16T18:28:36.963Z,99764.17
2022-11-16T18:31:06.951Z,99770.09
2022-11-16T18:33:38.032Z,99773.12
2022-11-16T18:36:08.215Z,99775.45
2022-11-16T18:38:38.575Z,99773.94
2022-11-16T18:41:09.143Z,99776.59
2022-11-16T18:43:39.226Z,99773.76
2022-11-16T18:46:10.125Z,99769.93
2022-11-16T18:48:40.758Z,99771.51
2022-11-16T18:51:11.395Z,99775.30
2022-11-16T18:53:41.670Z,99771.10
2022-11-16T18:56:12.540Z,99767.18
2022-11-16T18:58:50.184Z,99758.38
2022-11-16T19:01:13.427Z,99752.21
2022-11-16T19:03:43.929Z,99754.98
2022-11-16T19:06:14.666Z,99759.11
2022-11-16T19:08:47.822Z,99766.14
2022-11-16T19:11:15.627Z,99767.89
2022-11-16T19:13:46.230Z,99761.97
2022-11-16T19:16:16.939Z,99752.96
2022-11-16T19:18:47.486Z,99752.94
2022-11-16T19:21:17.677Z,99755.37
2022-11-16T19:23:48.450Z,99751.22
2022-11-16T19:26:19.135Z,99745.15
2022-11-16T19:28:49.675Z,99740.43
2022-11-16T19:31:20.491Z,99742.96
2022-11-16T19:33:51.001Z,99742.51
2022-11-16T19:36:20.974Z,99745.87
2022-11-16T19:38:51.037Z,99738.97
2022-11-16T19:41:21.513Z,99740.57
2022-11-16T19:43:52.138Z,99736.91
2022-11-16T19:46:22.635Z,99731.51
2022-11-16T19:48:53.222Z,99723.29
2022-11-16T19:51:23.212Z,99723.87
2022-11-16T19:53:54.007Z,99722.65
2022-11-16T19:56:24.727Z,99721.91
2022-11-16T19:58:54.801Z,99717.85
2022-11-16T20:01:24.918Z,99716.13
2022-11-16T20:03:55.418Z,99718.16
2022-11-16T20:06:25.733Z,99722.57
2022-11-16T20:08:56.083Z,99725.98
2022-11-16T20:11:26.168Z,99729.77
2022-11-16T20:13:56.280Z,99727.06
2022-11-16T20:16:26.556Z,99716.50
2022-11-16T20:18:57.013Z,99711.48
2022-11-16T20:21:26.948Z,99703.58
2022-11-16T20:24:03.115Z,99701.16
2022-11-16T20:26:27.836Z,99698.34
2022-11-16T20:28:58.513Z,99697.81
2022-11-16T20:31:29.330Z,99694.53
2022-11-16T20:34:00.032Z,99696.51
2022-11-16T20:36:30.624Z,99690.41
2022-11-16T20:39:00.945Z,99688.12
2022-11-16T20:41:31.036Z,99682.81
2022-11-16T20:44:01.341Z,99680.26
2022-11-16T20:46:32.111Z,99673.75
2022-11-16T20:49:02.107Z,99671.86
2022-11-16T20:51:32.492Z,99659.46
2022-11-16T20:54:03.280Z,99653.62
2022-11-16T20:56:33.730Z,99652.60
2022-11-16T20:59:04.029Z,99650.90
2022-11-16T21:01:34.728Z,99650.92
2022-11-16T21:04:05.218Z,99651.87
2022-11-16T21:06:35.604Z,99653.15
2022-11-16T21:09:05.956Z,99658.08
2022-11-16T21:11:36.594Z,99651.17
2022-11-16T21:14:07.241Z,99645.28
2022-11-16T21:16:37.314Z,99637.83
2022-11-16T21:19:07.596Z,99635.91
2022-11-16T21:21:38.274Z,99631.37
2022-11-16T21:24:08.310Z,99628.02
2022-11-16T21:26:38.646Z,99626.24
2022-11-16T21:29:09.057Z,99625.12
2022-11-16T21:31:39.094Z,99623.54
2022-11-16T21:34:09.164Z,99623.75
2022-11-16T21:36:39.185Z,99623.53
2022-11-16T21:39:09.780Z,99623.34
2022-11-16T21:41:39.951Z,99620.84
2022-11-16T21:44:09.945Z,99608.74
2022-11-16T21:46:40.314Z,99606.39
2022-11-16T21:49:10.316Z,99598.09
2022-11-16T21:51:40.423Z,99595.85
2022-11-16T21:54:10.710Z,99589.81
2022-11-16T21:56:40.813Z,99582.47
2022-11-16T21:59:10.834Z,99586.30
2022-11-16T22:01:41.730Z,99586.39
2022-11-16T22:04:12.441Z,99586.76
2022-11-16T22:06:42.474Z,99583.31
2022-11-16T22:09:13.274Z,99578.41
2022-11-16T22:11:43.916Z,99571.48
2022-11-16T22:14:14.065Z,99572.88
2022-11-16T22:16:44.375Z,99570.23
2022-11-16T22:19:14.671Z,99564.94
2022-11-16T22:21:45.199Z,99560.29
2022-11-16T22:24:15.118Z,99554.52
2022-11-16T22:26:45.149Z,99549.78
2022-11-16T22:29:15.643Z,99548.29
2022-11-16T22:31:45.675Z,99547.51
2022-11-16T22:34:16.531Z,99539.42
2022-11-16T22:36:47.223Z,99533.92
2022-11-16T22:39:17.436Z,99532.03
2022-11-16T22:41:48.210Z,99522.36
2022-11-16T22:44:18.632Z,99513.26
2022-11-16T22:46:48.965Z,99504.48
2022-11-16T22:49:19.473Z,99498.89
2022-11-16T22:51:49.584Z,99487.32
2022-11-16T22:54:22.277Z,99493.07
2022-11-16T22:56:50.177Z,99484.30
2022-11-16T22:59:20.961Z,99480.43
2022-11-16T23:01:51.713Z,99478.72
2022-11-16T23:04:22.427Z,99472.03
2022-11-16T23:06:52.814Z,99466.02
2022-11-16T23:09:22.993Z,99464.28
2022-11-16T23:11:53.088Z,99454.54
2022-11-16T23:14:23.105Z,99447.87
2022-11-16T23:16:53.160Z,99440.65
2022-11-16T23:19:23.453Z,99438.24
2022-11-16T23:21:53.767Z,99429.96
2022-11-16T23:24:24.354Z,99427.23
2022-11-16T23:26:54.529Z,99414.65
2022-11-16T23:29:24.844Z,99417.74
2022-11-16T23:31:55.157Z,99411.14
2022-11-16T23:34:25.188Z,99401.31
2022-11-16T23:36:55.964Z,99387.14
2022-11-16T23:39:27.162Z,99379.36
2022-11-16T23:41:56.089Z,99371.64
2022-11-16T23:44:25.918Z,99368.45
2022-11-16T23:46:56.338Z,99361.02
2022-11-16T23:49:26.291Z,99354.72
2022-11-16T23:51:56.989Z,99348.47
2022-11-16T23:54:27.774Z,99341.84
2022-11-16T23:56:58.435Z,99338.73
2022-11-16T23:59:29.237Z,99334.68
